createdAt,value
2023-05-12T00:02:15.275Z,56.50
2023-05-12T00:13:00.741Z,57.20
2023-05-12T00:18:20.685Z,57.60
2023-05-12T00:23:25.690Z,58.40
2023-05-12T00:28:38.566Z,58.40
2023-05-12T00:33:53.309Z,59.30
2023-05-12T00:39:08.221Z,58.60
2023-05-12T00:44:22.763Z,58.80
2023-05-12T00:49:27.253Z,58.90
2023-05-12T00:55:02.750Z,59.10
2023-05-12T01:00:12.522Z,59.30
2023-05-12T01:05:20.076Z,59.50
2023-05-12T01:10:35.865Z,59.80
2023-05-12T01:15:49.677Z,60.40
2023-05-12T01:32:44.889Z,60.40
2023-05-12T01:37:53.393Z,60.50
2023-05-12T01:42:57.270Z,60.70
2023-05-12T01:48:10.861Z,60.70
2023-05-12T01:53:13.953Z,60.80
2023-05-12T01:58:35.435Z,61.10
2023-05-12T02:04:03.085Z,60.90
2023-05-12T02:09:12.014Z,61.30
2023-05-12T02:14:15.323Z,61.70
2023-05-12T02:19:25.073Z,62.20
2023-05-12T02:24:37.111Z,63.10
2023-05-12T02:35:45.555Z,63.70
2023-05-12T02:41:08.762Z,64.00
2023-05-12T02:46:17.082Z,64.50
2023-05-12T02:56:54.730Z,64.00
2023-05-12T03:02:03.420Z,64.20
2023-05-12T03:07:17.068Z,64.80
2023-05-12T03:12:22.666Z,64.80
2023-05-12T03:17:31.955Z,64.90
2023-05-12T03:23:06.550Z,64.40
2023-05-12T03:28:27.342Z,64.40
2023-05-12T03:33:44.741Z,64.60
2023-05-12T03:38:54.361Z,64.80
2023-05-12T03:44:00.499Z,65.00
2023-05-12T03:54:25.710Z,64.40
2023-05-12T03:59:40.478Z,64.20
2023-05-12T04:04:56.329Z,64.50
2023-05-12T04:10:01.345Z,63.70
2023-05-12T04:15:10.844Z,63.40
2023-05-12T04:20:13.896Z,63.40
2023-05-12T04:25:21.712Z,64.40
2023-05-12T04:30:27.161Z,63.20
2023-05-12T04:35:35.956Z,62.60
2023-05-12T04:40:39.393Z,62.50
2023-05-12T04:45:51.744Z,62.50
2023-05-12T04:50:54.488Z,62.10
2023-05-12T04:55:57.137Z,62.30
2023-05-12T05:01:47.602Z,62.20
2023-05-12T05:19:19.998Z,62.60
2023-05-12T05:24:28.698Z,61.90
2023-05-12T05:29:31.169Z,61.60
2023-05-12T05:34:33.652Z,60.80
2023-05-12T05:39:36.160Z,57.90
2023-05-12T05:44:38.976Z,57.10
2023-05-12T05:49:42.246Z,56.90
2023-05-12T05:54:44.837Z,56.70
2023-05-12T05:59:47.750Z,55.90
2023-05-12T06:04:52.464Z,56.10
2023-05-12T06:09:55.982Z,56.90
2023-05-12T06:14:58.387Z,56.80
2023-05-12T06:20:00.904Z,56.40
2023-05-12T06:25:03.920Z,55.90
2023-05-12T06:30:07.971Z,55.50
2023-05-12T06:35:11.395Z,55.20
2023-05-12T06:40:45.120Z,56.20
2023-05-12T06:45:47.545Z,55.70
2023-05-12T06:50:50.164Z,55.90
2023-05-12T06:55:55.209Z,53.90
2023-05-12T07:00:57.903Z,54.20
2023-05-12T07:06:00.479Z,53.50
2023-05-12T07:11:03.373Z,52.80
2023-05-12T07:16:06.365Z,52.20
2023-05-12T07:21:09.348Z,51.70
2023-05-12T07:26:11.781Z,51.60
2023-05-12T07:31:19.731Z,51.20
2023-05-12T07:36:53.005Z,50.20
2023-05-12T07:42:11.460Z,48.30
2023-05-12T07:47:20.122Z,49.50
2023-05-12T07:52:24.923Z,48.90
2023-05-12T08:03:02.855Z,47.70
2023-05-12T08:08:05.465Z,46.70
2023-05-12T08:13:08.530Z,45.40
2023-05-12T08:18:11.410Z,46.70
2023-05-12T08:23:13.862Z,45.00
2023-05-12T08:28:16.338Z,45.10
2023-05-12T08:33:19.005Z,43.50
2023-05-12T08:38:22.165Z,43.10
2023-05-12T08:43:56.160Z,42.50
2023-05-12T08:49:01.938Z,41.90
2023-05-12T08:54:04.597Z,41.40
2023-05-12T08:59:35.100Z,40.80
2023-05-12T09:04:39.864Z,39.30
2023-05-12T09:09:46.018Z,39.10
2023-05-12T09:14:57.402Z,38.80
2023-05-12T09:19:59.854Z,38.20
2023-05-12T09:25:14.943Z,38.20
2023-05-12T09:30:28.279Z,37.00
2023-05-12T09:35:30.837Z,37.60
2023-05-12T09:40:33.218Z,36.40
2023-05-12T09:45:36.465Z,36.20
2023-05-12T09:50:50.501Z,36.20
2023-05-12T09:55:53.077Z,36.50
2023-05-12T10:01:18.279Z,35.20
2023-05-12T10:06:38.110Z,35.60
2023-05-12T10:11:40.992Z,35.10
2023-05-12T10:16:46.452Z,34.50
2023-05-12T10:21:49.643Z,35.10
2023-05-12T10:26:54.256Z,33.80
2023-05-12T10:32:01.304Z,33.50
2023-05-12T10:37:13.757Z,32.00
2023-05-12T10:42:26.960Z,32.60
2023-05-12T10:47:38.883Z,32.60
2023-05-12T10:52:52.830Z,31.80
2023-05-12T10:57:55.659Z,33.20
2023-05-12T11:03:01.229Z,30.90
2023-05-12T11:08:07.790Z,31.00
2023-05-12T11:13:11.480Z,30.80
2023-05-12T11:18:19.871Z,30.40
2023-05-12T11:23:28.746Z,30.20
2023-05-12T11:28:40.488Z,30.80
2023-05-12T11:33:42.840Z,29.10
2023-05-12T11:38:51.750Z,28.60
2023-05-12T11:43:54.172Z,28.50
2023-05-12T11:48:58.655Z,27.90
2023-05-12T11:54:01.122Z,27.70
2023-05-12T11:59:03.794Z,27.30
2023-05-12T12:04:06.293Z,27.10
2023-05-12T12:09:08.722Z,27.00
2023-05-12T12:14:11.370Z,26.90
2023-05-12T12:19:14.092Z,26.20
2023-05-12T12:24:16.540Z,26.00
2023-05-12T12:29:19.214Z,25.30
2023-05-12T12:34:21.611Z,25.00
2023-05-12T12:39:23.957Z,24.60
2023-05-12T12:44:26.214Z,24.20
2023-05-12T12:49:28.689Z,23.70
2023-05-12T12:54:31.189Z,22.20
2023-05-12T12:59:33.886Z,22.60
2023-05-12T13:04:36.481Z,22.30
2023-05-12T13:09:38.986Z,21.70
2023-05-12T13:14:41.467Z,21.40
2023-05-12T13:19:48.469Z,21.00
2023-05-12T13:24:50.795Z,20.60
2023-05-12T13:29:53.119Z,20.50
2023-05-12T13:34:55.672Z,20.50
2023-05-12T13:39:58.010Z,19.50
2023-05-12T13:45:00.382Z,19.20
2023-05-12T13:50:02.814Z,19.20
2023-05-12T13:55:05.524Z,19.90
2023-05-12T14:00:08.556Z,18.90
2023-05-12T14:05:19.829Z,18.30
2023-05-12T14:10:22.361Z,17.80
2023-05-12T14:15:32.904Z,17.70
2023-05-12T14:20:43.217Z,17.40
2023-05-12T14:25:45.629Z,17.80
2023-05-12T14:30:48.777Z,17.60
2023-05-12T14:36:03.168Z,17.30
2023-05-12T14:41:09.652Z,18.30
2023-05-12T14:46:12.081Z,18.20
2023-05-12T14:51:14.491Z,17.90
2023-05-12T14:56:16.792Z,17.70
2023-05-12T15:01:19.169Z,17.40
2023-05-12T15:06:21.556Z,17.10
2023-05-12T15:11:23.949Z,17.10
2023-05-12T15:16:28.176Z,17.70
2023-05-12T15:21:31.218Z,17.70
2023-05-12T15:26:34.666Z,17.70
2023-05-12T15:31:38.668Z,17.20
2023-05-12T15:36:41.225Z,17.40
2023-05-12T15:41:43.630Z,17.30
2023-05-12T15:46:46.658Z,17.70
2023-05-12T15:51:49.103Z,17.80
2023-05-12T15:56:51.465Z,17.80
2023-05-12T16:01:55.396Z,17.80
2023-05-12T16:06:57.758Z,17.70
2023-05-12T16:12:00.208Z,18.10
2023-05-12T16:17:04.832Z,18.10
2023-05-12T16:22:07.473Z,18.00
2023-05-12T16:27:09.853Z,18.20
2023-05-12T16:32:12.226Z,18.70
2023-05-12T16:37:14.588Z,19.10
2023-05-12T16:42:16.909Z,19.50
2023-05-12T16:47:19.197Z,20.30
2023-05-12T16:52:21.721Z,20.50
2023-05-12T16:57:24.440Z,20.10
2023-05-12T17:02:26.963Z,19.40
2023-05-12T17:07:29.391Z,19.90
2023-05-12T17:12:32.148Z,19.70
2023-05-12T17:17:35.030Z,20.20
2023-05-12T17:22:41.856Z,21.80
2023-05-12T17:27:44.438Z,24.20
2023-05-12T17:32:46.841Z,25.60
2023-05-12T17:37:52.824Z,26.60
2023-05-12T17:42:55.318Z,27.40
2023-05-12T17:47:57.691Z,28.20
2023-05-12T17:53:00.011Z,28.80
2023-05-12T17:58:02.357Z,29.10
2023-05-12T18:03:05.176Z,29.80
2023-05-12T18:08:07.980Z,30.20
2023-05-12T18:13:10.883Z,30.80
2023-05-12T18:18:14.536Z,31.10
2023-05-12T18:23:17.299Z,31.60
2023-05-12T18:28:19.611Z,32.60
2023-05-12T18:33:21.922Z,33.10
2023-05-12T18:38:24.430Z,33.10
2023-05-12T18:43:26.734Z,33.50
2023-05-12T18:48:29.054Z,33.90
2023-05-12T18:53:31.792Z,34.20
2023-05-12T18:58:34.093Z,34.80
2023-05-12T19:03:37.232Z,34.80
2023-05-12T19:08:39.546Z,35.70
2023-05-12T19:13:45.267Z,36.10
2023-05-12T19:18:48.358Z,36.50
2023-05-12T19:23:51.360Z,36.80
2023-05-12T19:28:53.698Z,37.10
2023-05-12T19:33:55.991Z,37.10
2023-05-12T19:39:00.377Z,37.20
2023-05-12T19:44:02.901Z,37.20
2023-05-12T19:49:06.136Z,37.60
2023-05-12T19:54:10.025Z,37.70
2023-05-12T19:59:12.434Z,37.80
2023-05-12T20:04:15.177Z,38.00
2023-05-12T20:09:20.496Z,38.30
2023-05-12T20:14:23.144Z,38.60
2023-05-12T20:19:26.488Z,38.90
2023-05-12T20:24:29.384Z,39.10
2023-05-12T20:29:31.707Z,39.60
2023-05-12T20:34:34.072Z,40.00
2023-05-12T20:39:36.365Z,39.90
2023-05-12T20:44:38.724Z,40.20
2023-05-12T20:49:41.074Z,40.30
2023-05-12T20:54:43.395Z,40.80
2023-05-12T20:59:46.889Z,41.10
2023-05-12T21:04:49.267Z,41.50
2023-05-12T21:09:51.555Z,41.70
2023-05-12T21:14:53.864Z,41.80
2023-05-12T21:19:56.195Z,42.20
2023-05-12T21:24:59.041Z,42.80
2023-05-12T21:30:01.317Z,42.90
2023-05-12T21:35:03.898Z,43.10
2023-05-12T21:40:06.954Z,43.70
2023-05-12T21:45:09.735Z,44.30
2023-05-12T21:50:12.316Z,44.80
2023-05-12T21:55:15.254Z,45.80
2023-05-12T22:00:20.049Z,46.30
2023-05-12T22:05:23.626Z,47.00
2023-05-12T22:10:26.270Z,47.40
2023-05-12T22:15:28.569Z,48.30
2023-05-12T22:20:31.990Z,48.50
2023-05-12T22:25:34.606Z,49.10
2023-05-12T22:30:36.934Z,49.20
2023-05-12T22:35:39.220Z,49.90
2023-05-12T22:40:42.867Z,50.40
2023-05-12T22:45:45.335Z,50.90
2023-05-12T22:50:48.021Z,51.60
2023-05-12T22:55:50.393Z,51.90
2023-05-12T23:00:52.749Z,52.40
2023-05-12T23:05:55.041Z,52.80
2023-05-12T23:10:57.393Z,53.20
2023-05-12T23:15:59.738Z,53.30
2023-05-12T23:21:02.086Z,52.80
2023-05-12T23:26:04.723Z,53.20
2023-05-12T23:31:07.061Z,53.30
2023-05-12T23:36:09.672Z,53.10
2023-05-12T23:41:11.923Z,53.00
2023-05-12T23:46:14.269Z,53.40
2023-05-12T23:51:16.633Z,53.30
2023-05-12T23:56:18.995Z,53.50
